Time;durP1;ratioP1;P1;durP2;ratioP2;P2;SDS_P1;SDS_P2;PMS_P1;PMS_P2;Temp;Humidity;BMP_temperature;BMP_pressure;BME280_temperature;BME280_humidity;BME280_pressure;Samples;Min_cycle;Max_cycle;Signal;HPM_P1;HPM_P2
2023/04/10 00:01:34;;;;;;;4.47;3.80;;;;;;;;;;5021578;28;20217;-71
2023/04/10 00:04:03;;;;;;;4.80;4.13;;;;;;;;;;5021258;28;20302;-71
2023/04/10 00:06:30;;;;;;;4.40;4.00;;;;;;;;;;5021741;28;20210;-71
2023/04/10 00:08:57;;;;;;;4.73;4.10;;;;;;;;;;5026188;28;20220;-72
2023/04/10 00:11:25;;;;;;;4.40;4.00;;;;;;;;;;5028394;28;20200;-72
2023/04/10 00:13:52;;;;;;;4.50;4.10;;;;;;;;;;5022159;28;20287;-72
2023/04/10 00:16:19;;;;;;;4.50;4.10;;;;;;;;;;5024577;28;20208;-71
2023/04/10 00:18:47;;;;;;;4.93;4.47;;;;;;;;;;5021967;28;20205;-72
2023/04/10 00:21:16;;;;;;;4.47;4.07;;;;;;;;;;5026253;28;20200;-72
2023/04/10 00:23:43;;;;;;;4.20;3.90;;;;;;;;;;5017167;28;20219;-72
2023/04/10 00:26:10;;;;;;;4.20;3.80;;;;;;;;;;5020680;28;20212;-72
2023/04/10 00:28:37;;;;;;;4.73;4.33;;;;;;;;;;5019052;28;20247;-72
2023/04/10 00:31:04;;;;;;;4.40;4.00;;;;;;;;;;5020355;28;20200;-72
2023/04/10 00:33:31;;;;;;;4.40;4.00;;;;;;;;;;5019878;28;20205;-71
2023/04/10 00:35:59;;;;;;;4.80;4.30;;;;;;;;;;5020804;28;20201;-72
2023/04/10 00:38:27;;;;;;;4.40;4.10;;;;;;;;;;5019334;28;20223;-72
2023/04/10 00:40:54;;;;;;;4.63;4.00;;;;;;;;;;5023059;28;20204;-72
2023/04/10 00:43:23;;;;;;;4.27;3.97;;;;;;;;;;5024477;28;20220;-71
2023/04/10 00:45:50;;;;;;;4.30;3.93;;;;;;;;;;5022867;28;20209;-72
2023/04/10 00:48:17;;;;;;;4.87;4.47;;;;;;;;;;5022546;28;20196;-72
2023/04/10 00:50:46;;;;;;;4.40;4.00;;;;;;;;;;5021934;28;20203;-72
2023/04/10 00:53:13;;;;;;;4.57;4.17;;;;;;;;;;5023605;28;20196;-72
2023/04/10 00:55:41;;;;;;;4.80;4.40;;;;;;;;;;5023542;28;20215;-71
2023/04/10 00:58:12;;;;;;;4.67;4.20;;;;;;;;;;5022019;28;20207;-71
2023/04/10 01:00:39;;;;;;;4.47;4.07;;;;;;;;;;5022115;28;20358;-62
2023/04/10 01:03:07;;;;;;;4.73;4.33;;;;;;;;;;5024820;28;20310;-63
2023/04/10 01:05:39;;;;;;;3.90;3.60;;;;;;;;;;5022874;28;20208;-63
2023/04/10 01:08:13;;;;;;;4.50;4.10;;;;;;;;;;5020625;28;20208;-63
2023/04/10 01:10:47;;;;;;;5.80;4.50;;;;;;;;;;5022987;28;20259;-63
2023/04/10 01:13:17;;;;;;;4.70;4.30;;;;;;;;;;5025438;28;20196;-63
2023/04/10 01:15:47;;;;;;;4.77;4.37;;;;;;;;;;5020575;28;20201;-63
2023/04/10 01:18:18;;;;;;;4.63;4.23;;;;;;;;;;5025883;28;20204;-63
2023/04/10 01:20:46;;;;;;;4.60;4.20;;;;;;;;;;5024999;28;20208;-63
2023/04/10 01:23:43;;;;;;;4.60;4.20;;;;;;;;;;5021342;28;20216;-63
2023/04/10 01:26:12;;;;;;;4.77;4.37;;;;;;;;;;4948190;28;20226;-63
2023/04/10 01:28:51;;;;;;;4.57;4.17;;;;;;;;;;5002000;28;20236;-63
2023/04/10 01:31:20;;;;;;;4.90;4.50;;;;;;;;;;5019964;28;20204;-63
2023/04/10 01:33:49;;;;;;;4.67;4.17;;;;;;;;;;5020308;28;20218;-63
2023/04/10 01:36:19;;;;;;;4.70;4.30;;;;;;;;;;5018904;28;20250;-63
2023/04/10 01:38:47;;;;;;;4.40;4.10;;;;;;;;;;5022974;28;20201;-63
2023/04/10 01:41:15;;;;;;;5.30;4.80;;;;;;;;;;5020252;28;20204;-63
2023/04/10 01:43:43;;;;;;;4.87;4.47;;;;;;;;;;5020198;28;20319;-63
2023/04/10 01:46:13;;;;;;;5.40;4.90;;;;;;;;;;5021381;28;20227;-63
2023/04/10 01:48:40;;;;;;;4.57;4.17;;;;;;;;;;5020147;28;20200;-63
2023/04/10 01:51:08;;;;;;;4.93;4.50;;;;;;;;;;5018560;28;20208;-63
2023/04/10 01:53:36;;;;;;;5.07;4.67;;;;;;;;;;5021046;28;20199;-63
2023/04/10 01:56:03;;;;;;;4.80;4.40;;;;;;;;;;5024789;28;20219;-63
2023/04/10 01:58:31;;;;;;;5.33;4.83;;;;;;;;;;5022374;28;20201;-63
2023/04/10 02:00:58;;;;;;;4.83;4.43;;;;;;;;;;5021583;28;20206;-63
2023/04/10 02:03:26;;;;;;;5.10;4.60;;;;;;;;;;5021668;28;20220;-63
2023/04/10 02:05:57;;;;;;;4.77;4.37;;;;;;;;;;5024738;28;20197;-63
2023/04/10 02:08:26;;;;;;;5.43;4.93;;;;;;;;;;5020086;28;20212;-63
2023/04/10 02:10:55;;;;;;;5.30;4.80;;;;;;;;;;5020029;28;20200;-63
2023/04/10 02:13:23;;;;;;;4.63;4.23;;;;;;;;;;5023961;28;20206;-63
2023/04/10 02:15:51;;;;;;;4.90;4.43;;;;;;;;;;5024352;28;20207;-72
2023/04/10 02:18:19;;;;;;;4.97;4.47;;;;;;;;;;5024338;28;20204;-73
2023/04/10 02:20:47;;;;;;;5.93;4.50;;;;;;;;;;5017582;28;20211;-73
2023/04/10 02:23:16;;;;;;;4.90;4.50;;;;;;;;;;5021423;28;20224;-73
2023/04/10 02:25:43;;;;;;;4.80;4.30;;;;;;;;;;5019203;28;20209;-73
2023/04/10 02:28:10;;;;;;;5.03;4.60;;;;;;;;;;5020806;28;20248;-72
2023/04/10 02:30:38;;;;;;;4.63;4.23;;;;;;;;;;5022278;28;20208;-72
2023/04/10 02:33:05;;;;;;;4.97;4.33;;;;;;;;;;5026013;28;20203;-73
2023/04/10 02:35:32;;;;;;;4.80;4.40;;;;;;;;;;5021808;28;20251;-72
2023/04/10 02:38:01;;;;;;;4.63;4.23;;;;;;;;;;5024013;28;20200;-73
2023/04/10 02:40:28;;;;;;;5.03;4.63;;;;;;;;;;5021668;28;20211;-73
2023/04/10 02:42:55;;;;;;;4.77;4.37;;;;;;;;;;5020086;28;20212;-73
2023/04/10 02:45:22;;;;;;;4.70;4.30;;;;;;;;;;5018754;28;20204;-72
2023/04/10 02:47:49;;;;;;;5.37;4.90;;;;;;;;;;5019109;28;20208;-73
2023/04/10 02:50:16;;;;;;;5.40;4.90;;;;;;;;;;5024106;28;20211;-73
2023/04/10 02:52:44;;;;;;;4.33;3.97;;;;;;;;;;5025175;28;20204;-73
2023/04/10 02:55:12;;;;;;;5.43;4.93;;;;;;;;;;5021803;28;20196;-73
2023/04/10 02:57:39;;;;;;;5.67;5.07;;;;;;;;;;5022168;28;20199;-73
2023/04/10 03:00:07;;;;;;;5.07;4.67;;;;;;;;;;5021470;28;20208;-73
2023/04/10 03:02:34;;;;;;;5.60;5.10;;;;;;;;;;5021289;28;20209;-73
2023/04/10 03:05:02;;;;;;;5.40;4.47;;;;;;;;;;5027225;28;20231;-73
2023/04/10 03:07:31;;;;;;;4.53;4.13;;;;;;;;;;5027044;28;20204;-73
2023/04/10 03:09:58;;;;;;;5.10;4.70;;;;;;;;;;5021685;28;20216;-73
2023/04/10 03:12:26;;;;;;;4.90;4.50;;;;;;;;;;5027467;28;20208;-73
2023/04/10 03:14:53;;;;;;;4.93;4.50;;;;;;;;;;5027629;28;20209;-73
2023/04/10 03:17:20;;;;;;;4.67;4.27;;;;;;;;;;5026243;28;20203;-73
2023/04/10 03:19:47;;;;;;;4.90;4.40;;;;;;;;;;5027039;28;20205;-73
2023/04/10 03:22:15;;;;;;;4.97;4.57;;;;;;;;;;5022688;28;20207;-73
2023/04/10 03:24:42;;;;;;;4.83;4.43;;;;;;;;;;5029352;28;20270;-73
2023/04/10 03:27:09;;;;;;;4.50;4.10;;;;;;;;;;5023035;28;20200;-73
2023/04/10 03:29:37;;;;;;;4.50;4.10;;;;;;;;;;5023394;28;20243;-73
2023/04/10 03:32:05;;;;;;;5.00;4.60;;;;;;;;;;5021940;28;20200;-73
2023/04/10 03:34:32;;;;;;;4.47;4.07;;;;;;;;;;5022032;28;20216;-73
2023/04/10 03:36:59;;;;;;;4.70;4.23;;;;;;;;;;5023235;28;20215;-73
2023/04/10 03:39:26;;;;;;;4.60;4.20;;;;;;;;;;5024901;28;20213;-74
2023/04/10 03:41:53;;;;;;;5.07;4.60;;;;;;;;;;5022636;28;20212;-73
2023/04/10 03:44:21;;;;;;;5.23;4.83;;;;;;;;;;5026068;28;20223;-73
2023/04/10 03:46:49;;;;;;;5.17;4.77;;;;;;;;;;5027724;28;20212;-73
2023/04/10 03:49:16;;;;;;;5.47;4.80;;;;;;;;;;5024223;28;20200;-73
2023/04/10 03:51:44;;;;;;;4.73;4.33;;;;;;;;;;5024900;28;20204;-73
2023/04/10 03:54:11;;;;;;;5.10;4.60;;;;;;;;;;5020971;28;20208;-73
2023/04/10 03:56:38;;;;;;;4.67;4.27;;;;;;;;;;5029288;28;20208;-73
2023/04/10 03:59:05;;;;;;;5.43;4.90;;;;;;;;;;5021733;28;20216;-73
2023/04/10 04:01:32;;;;;;;5.30;4.80;;;;;;;;;;5020285;28;20204;-73
2023/04/10 04:04:01;;;;;;;5.47;4.67;;;;;;;;;;5025579;28;20216;-73
2023/04/10 04:06:28;;;;;;;4.87;4.47;;;;;;;;;;5022713;28;20209;-73
2023/04/10 04:08:55;;;;;;;5.00;4.50;;;;;;;;;;5027443;28;20227;-73
2023/04/10 04:11:22;;;;;;;4.93;4.53;;;;;;;;;;5020360;28;20211;-73
2023/04/10 04:13:49;;;;;;;4.63;4.23;;;;;;;;;;5024867;28;20200;-73
2023/04/10 04:16:16;;;;;;;5.33;4.83;;;;;;;;;;5026403;28;20205;-73
2023/04/10 04:18:43;;;;;;;5.03;4.63;;;;;;;;;;5020999;28;20204;-73
2023/04/10 04:21:13;;;;;;;4.97;4.57;;;;;;;;;;5021115;28;20212;-73
2023/04/10 04:23:40;;;;;;;5.00;4.57;;;;;;;;;;5026040;28;20321;-73
2023/04/10 04:26:07;;;;;;;5.40;4.97;;;;;;;;;;5023760;28;20216;-73
2023/04/10 04:28:34;;;;;;;4.80;4.40;;;;;;;;;;5024094;28;20236;-73
2023/04/10 04:31:01;;;;;;;5.03;4.63;;;;;;;;;;5020737;28;20235;-73
2023/04/10 04:33:28;;;;;;;4.80;4.40;;;;;;;;;;5023443;28;20201;-73
2023/04/10 04:35:55;;;;;;;4.63;4.23;;;;;;;;;;5023384;28;20200;-73
2023/04/10 04:38:24;;;;;;;5.50;5.00;;;;;;;;;;5022168;28;20201;-73
2023/04/10 04:40:51;;;;;;;5.13;4.70;;;;;;;;;;5024569;28;20196;-73
2023/04/10 04:43:18;;;;;;;5.10;4.70;;;;;;;;;;5016568;28;20291;-73
2023/04/10 04:45:45;;;;;;;4.83;4.43;;;;;;;;;;5019713;28;20234;-73
2023/04/10 04:48:13;;;;;;;5.03;4.63;;;;;;;;;;5022023;28;20205;-73
2023/04/10 04:50:41;;;;;;;4.83;4.43;;;;;;;;;;5024478;28;20204;-73
2023/04/10 04:53:08;;;;;;;5.27;4.77;;;;;;;;;;5023032;28;20213;-73
2023/04/10 04:55:36;;;;;;;5.40;4.90;;;;;;;;;;5022688;28;20200;-73
2023/04/10 04:58:03;;;;;;;6.67;5.40;;;;;;;;;;5020163;28;20208;-73
2023/04/10 05:00:30;;;;;;;4.97;4.57;;;;;;;;;;5019908;28;20213;-73
2023/04/10 05:02:57;;;;;;;5.00;4.50;;;;;;;;;;5018631;28;20200;-73
2023/04/10 05:05:24;;;;;;;4.90;4.50;;;;;;;;;;5021937;28;20216;-73
2023/04/10 05:07:52;;;;;;;4.60;4.13;;;;;;;;;;5020970;28;20204;-73
2023/04/10 05:10:19;;;;;;;4.60;4.20;;;;;;;;;;5024253;28;20209;-73
2023/04/10 05:12:47;;;;;;;4.67;4.27;;;;;;;;;;5018879;28;20211;-73
2023/04/10 05:15:14;;;;;;;5.03;4.63;;;;;;;;;;5022095;28;20215;-73
2023/04/10 05:17:42;;;;;;;4.80;4.40;;;;;;;;;;5024499;28;20295;-73
2023/04/10 05:20:10;;;;;;;5.13;4.73;;;;;;;;;;5024423;28;20222;-73
2023/04/10 05:22:37;;;;;;;5.03;4.60;;;;;;;;;;5023177;28;20204;-73
2023/04/10 05:25:04;;;;;;;4.93;4.40;;;;;;;;;;5020913;28;20227;-73
2023/04/10 05:27:31;;;;;;;5.30;4.80;;;;;;;;;;5024390;28;20200;-72
2023/04/10 05:30:00;;;;;;;5.40;4.90;;;;;;;;;;5024285;28;20212;-73
2023/04/10 05:32:27;;;;;;;5.37;4.87;;;;;;;;;;5022352;28;20201;-73
2023/04/10 05:34:54;;;;;;;6.40;5.60;;;;;;;;;;5020894;28;20208;-73
2023/04/10 05:37:21;;;;;;;6.33;5.73;;;;;;;;;;5021956;28;20212;-73
2023/04/10 05:39:48;;;;;;;6.30;5.70;;;;;;;;;;5023424;28;20208;-73
2023/04/10 05:42:15;;;;;;;6.37;5.77;;;;;;;;;;5024494;28;20204;-73
2023/04/10 05:44:42;;;;;;;6.27;5.67;;;;;;;;;;5017881;28;20346;-73
2023/04/10 05:47:11;;;;;;;5.73;5.17;;;;;;;;;;5019910;28;20215;-73
2023/04/10 05:49:38;;;;;;;5.13;4.63;;;;;;;;;;5020761;28;20213;-73
2023/04/10 05:52:05;;;;;;;5.30;4.90;;;;;;;;;;5021190;28;20204;-73
2023/04/10 05:54:32;;;;;;;5.27;4.87;;;;;;;;;;5022515;28;20219;-73
2023/04/10 05:57:00;;;;;;;5.93;5.33;;;;;;;;;;5019841;28;20204;-73
2023/04/10 05:59:27;;;;;;;4.93;4.53;;;;;;;;;;5017068;28;20205;-74
2023/04/10 06:01:54;;;;;;;5.10;4.60;;;;;;;;;;5021093;28;20201;-75
2023/04/10 06:04:23;;;;;;;4.87;4.47;;;;;;;;;;5021552;28;20220;-75
2023/04/10 06:06:50;;;;;;;5.07;4.57;;;;;;;;;;5016802;28;20215;-75
2023/04/10 06:09:17;;;;;;;5.10;4.60;;;;;;;;;;5023160;28;20204;-74
2023/04/10 06:11:44;;;;;;;5.13;4.63;;;;;;;;;;5018013;28;20204;-75
2023/04/10 06:14:11;;;;;;;5.00;4.60;;;;;;;;;;5017287;28;20299;-75
2023/04/10 06:16:38;;;;;;;5.03;4.53;;;;;;;;;;5015159;28;20208;-75
2023/04/10 06:19:06;;;;;;;5.23;4.73;;;;;;;;;;5018391;28;20219;-75
2023/04/10 06:21:34;;;;;;;5.20;4.70;;;;;;;;;;5016603;28;20216;-75
2023/04/10 06:24:02;;;;;;;5.60;5.10;;;;;;;;;;5022731;28;20204;-75
2023/04/10 06:26:29;;;;;;;5.30;4.80;;;;;;;;;;5018623;28;20204;-75
2023/04/10 06:28:56;;;;;;;5.57;5.07;;;;;;;;;;5017250;28;20229;-74
2023/04/10 06:31:23;;;;;;;5.60;5.10;;;;;;;;;;5019583;28;20204;-75
2023/04/10 06:33:50;;;;;;;5.73;5.23;;;;;;;;;;5020377;28;20295;-75
2023/04/10 06:36:19;;;;;;;5.90;5.20;;;;;;;;;;5016326;28;20196;-74
2023/04/10 06:38:47;;;;;;;6.17;5.57;;;;;;;;;;5018318;28;20331;-74
2023/04/10 06:41:15;;;;;;;5.70;5.13;;;;;;;;;;5021723;28;20211;-75
2023/04/10 06:43:42;;;;;;;5.63;5.13;;;;;;;;;;5020440;28;20207;-75
2023/04/10 06:46:09;;;;;;;5.27;4.77;;;;;;;;;;5019500;28;20208;-75
2023/04/10 06:48:36;;;;;;;5.17;4.77;;;;;;;;;;5017642;28;20212;-74
2023/04/10 06:51:03;;;;;;;6.00;5.47;;;;;;;;;;5019052;28;20211;-74
2023/04/10 06:53:30;;;;;;;5.13;4.63;;;;;;;;;;5017812;28;20211;-73
2023/04/10 06:55:59;;;;;;;5.10;4.70;;;;;;;;;;5020002;28;20197;-74
2023/04/10 06:58:26;;;;;;;4.93;4.50;;;;;;;;;;5015617;28;20208;-74
2023/04/10 07:00:53;;;;;;;5.43;4.93;;;;;;;;;;5019507;28;20208;-73
2023/04/10 07:03:23;;;;;;;5.47;4.97;;;;;;;;;;5023509;28;20279;-71
2023/04/10 07:05:50;;;;;;;4.90;4.50;;;;;;;;;;5012303;28;20225;-71
2023/04/10 07:08:17;;;;;;;4.90;4.50;;;;;;;;;;5019428;28;20214;-71
2023/04/10 07:10:44;;;;;;;4.77;4.37;;;;;;;;;;5015042;28;20215;-71
2023/04/10 07:13:12;;;;;;;5.23;4.60;;;;;;;;;;5021888;28;20213;-71
2023/04/10 07:15:39;;;;;;;5.17;4.67;;;;;;;;;;5010639;28;20200;-71
2023/04/10 07:18:07;;;;;;;4.57;4.17;;;;;;;;;;5016549;28;20213;-71
2023/04/10 07:20:34;;;;;;;4.90;4.50;;;;;;;;;;5020778;28;20216;-71
2023/04/10 07:23:01;;;;;;;4.90;4.50;;;;;;;;;;5017841;28;20208;-71
2023/04/10 07:25:28;;;;;;;4.60;4.20;;;;;;;;;;5020911;28;20228;-71
2023/04/10 07:27:55;;;;;;;4.40;4.10;;;;;;;;;;5018743;28;20444;-69
2023/04/10 07:30:24;;;;;;;4.30;3.97;;;;;;;;;;5022951;28;20216;-70
2023/04/10 07:32:51;;;;;;;4.30;3.97;;;;;;;;;;5017122;28;20255;-70
2023/04/10 07:35:19;;;;;;;4.60;4.20;;;;;;;;;;5022353;28;20219;-70
2023/04/10 07:37:50;;;;;;;4.77;4.27;;;;;;;;;;5017477;28;20213;-70
2023/04/10 07:40:17;;;;;;;4.20;3.90;;;;;;;;;;5016752;28;20218;-70
2023/04/10 07:42:44;;;;;;;4.73;4.33;;;;;;;;;;5014367;28;20208;-70
2023/04/10 07:45:12;;;;;;;4.27;3.97;;;;;;;;;;5019634;28;20236;-70
2023/04/10 07:47:40;;;;;;;4.20;3.90;;;;;;;;;;5020784;28;20212;-70
2023/04/10 07:50:08;;;;;;;4.03;3.73;;;;;;;;;;5027161;28;20209;-70
2023/04/10 07:52:35;;;;;;;4.13;3.83;;;;;;;;;;5022092;28;20224;-70
2023/04/10 07:55:02;;;;;;;4.27;3.87;;;;;;;;;;5020086;28;20215;-70
2023/04/10 07:57:30;;;;;;;5.13;4.17;;;;;;;;;;5018724;28;20237;-69
2023/04/10 07:59:58;;;;;;;4.20;3.90;;;;;;;;;;5023039;28;20215;-69
2023/04/10 08:02:25;;;;;;;4.00;3.70;;;;;;;;;;5024752;28;20208;-69
2023/04/10 08:04:53;;;;;;;4.13;3.73;;;;;;;;;;5021662;28;20232;-69
2023/04/10 08:07:21;;;;;;;3.93;3.63;;;;;;;;;;5021937;28;20193;-69
2023/04/10 08:09:51;;;;;;;3.47;3.27;;;;;;;;;;5026453;28;20219;-69
2023/04/10 08:12:18;;;;;;;3.70;3.40;;;;;;;;;;5018260;28;20213;-69
2023/04/10 08:14:45;;;;;;;3.60;3.30;;;;;;;;;;5025753;28;20208;-69
2023/04/10 08:17:13;;;;;;;3.50;3.20;;;;;;;;;;5018936;28;20204;-69
2023/04/10 08:19:41;;;;;;;3.10;2.90;;;;;;;;;;5020657;28;20204;-69
2023/04/10 08:22:09;;;;;;;5.67;3.50;;;;;;;;;;5023644;28;20193;-69
2023/04/10 08:24:36;;;;;;;2.90;2.70;;;;;;;;;;5016300;28;20205;-69
2023/04/10 08:27:03;;;;;;;3.63;3.13;;;;;;;;;;5015869;28;20227;-68
2023/04/10 08:29:31;;;;;;;2.80;2.60;;;;;;;;;;5018205;28;20262;-69
2023/04/10 08:31:59;;;;;;;3.13;2.93;;;;;;;;;;5018661;28;20209;-69
2023/04/10 08:34:27;;;;;;;3.30;3.10;;;;;;;;;;5018415;28;20200;-69
2023/04/10 08:36:54;;;;;;;3.20;3.00;;;;;;;;;;5016270;28;20204;-69
2023/04/10 08:39:24;;;;;;;3.10;2.90;;;;;;;;;;5012794;28;20208;-68
2023/04/10 08:41:51;;;;;;;3.47;3.20;;;;;;;;;;5018485;28;20208;-69
2023/04/10 08:44:18;;;;;;;3.00;2.80;;;;;;;;;;5017718;28;20208;-69
2023/04/10 08:46:46;;;;;;;3.00;2.80;;;;;;;;;;5019001;28;20216;-68
2023/04/10 08:49:18;;;;;;;2.93;2.73;;;;;;;;;;5018523;28;20227;-69
2023/04/10 08:51:47;;;;;;;2.92;2.72;;;;;;;;;;5014091;28;20266;-68
2023/04/10 08:54:19;;;;;;;3.08;2.88;;;;;;;;;;5019664;28;20269;-68
2023/04/10 08:56:51;;;;;;;3.15;2.95;;;;;;;;;;5018756;28;20197;-68
2023/04/10 08:59:18;;;;;;;3.00;2.80;;;;;;;;;;5019798;28;20283;-69
2023/04/10 09:01:47;;;;;;;3.00;2.70;;;;;;;;;;5024376;28;20200;-69
2023/04/10 09:04:15;;;;;;;2.72;2.53;;;;;;;;;;5026289;28;20207;-68
2023/04/10 09:06:43;;;;;;;2.85;2.65;;;;;;;;;;5022147;28;20224;-68
2023/04/10 09:09:10;;;;;;;3.05;2.85;;;;;;;;;;5017638;28;20201;-69
2023/04/10 09:11:52;;;;;;;4.18;2.67;;;;;;;;;;5017710;28;20200;-70
2023/04/10 09:14:22;;;;;;;2.90;2.70;;;;;;;;;;5017997;28;20300;-70
2023/04/10 09:16:49;;;;;;;2.47;2.38;;;;;;;;;;5019453;28;20205;-70
2023/04/10 09:19:29;;;;;;;4.18;3.13;;;;;;;;;;5014092;28;20205;-67
2023/04/10 09:21:57;;;;;;;2.80;2.60;;;;;;;;;;5013278;28;20211;-67
2023/04/10 09:24:24;;;;;;;2.92;2.72;;;;;;;;;;5020009;28;20204;-68
2023/04/10 09:26:51;;;;;;;2.85;2.70;;;;;;;;;;5016829;28;20224;-68
2023/04/10 09:29:19;;;;;;;2.90;2.70;;;;;;;;;;5017726;28;20244;-68
2023/04/10 09:31:48;;;;;;;3.10;2.90;;;;;;;;;;5022110;28;20291;-68
2023/04/10 09:34:15;;;;;;;2.78;2.58;;;;;;;;;;5012942;28;20251;-70
2023/04/10 09:36:43;;;;;;;2.78;2.58;;;;;;;;;;5017473;28;20219;-71
2023/04/10 09:39:11;;;;;;;2.63;2.40;;;;;;;;;;5022600;28;20201;-71
2023/04/10 09:41:48;;;;;;;2.90;2.60;;;;;;;;;;5019851;28;20212;-71
2023/04/10 09:44:17;;;;;;;2.90;2.70;;;;;;;;;;5017020;28;20228;-71
2023/04/10 09:46:45;;;;;;;2.53;2.33;;;;;;;;;;5018119;28;20220;-70
2023/04/10 09:49:13;;;;;;;3.33;2.50;;;;;;;;;;5015867;28;20211;-71
2023/04/10 09:51:41;;;;;;;2.40;2.30;;;;;;;;;;5015716;28;20228;-68
2023/04/10 09:54:08;;;;;;;2.20;2.10;;;;;;;;;;5017961;28;20218;-68
2023/04/10 09:56:39;;;;;;;2.83;2.40;;;;;;;;;;5018212;28;20208;-68
2023/04/10 09:59:07;;;;;;;2.45;1.95;;;;;;;;;;5022778;28;20204;-68
2023/04/10 10:01:34;;;;;;;2.25;2.15;;;;;;;;;;5022070;28;20293;-68
2023/04/10 10:04:02;;;;;;;2.78;2.58;;;;;;;;;;5021021;28;20211;-68
2023/04/10 10:06:32;;;;;;;2.30;2.20;;;;;;;;;;5024370;28;20224;-68
2023/04/10 10:09:02;;;;;;;2.35;2.22;;;;;;;;;;5017789;28;20208;-69
2023/04/10 10:11:30;;;;;;;3.35;2.20;;;;;;;;;;5018652;28;20267;-68
2023/04/10 10:13:59;;;;;;;2.35;2.25;;;;;;;;;;5019998;28;20398;-69
2023/04/10 10:16:29;;;;;;;4.78;2.30;;;;;;;;;;5019675;28;20196;-68
2023/04/10 10:19:01;;;;;;;2.28;2.17;;;;;;;;;;5018350;28;20197;-69
2023/04/10 10:21:29;;;;;;;2.38;2.28;;;;;;;;;;5018524;28;20224;-69
2023/04/10 10:23:59;;;;;;;2.20;2.10;;;;;;;;;;5021631;28;20205;-69
2023/04/10 10:26:28;;;;;;;2.13;2.03;;;;;;;;;;5018365;28;20247;-68
2023/04/10 10:28:56;;;;;;;2.22;2.13;;;;;;;;;;5021567;28;20224;-69
2023/04/10 10:31:25;;;;;;;2.30;2.20;;;;;;;;;;5025490;28;20207;-69
2023/04/10 10:33:53;;;;;;;2.13;2.03;;;;;;;;;;5025175;28;20204;-69
2023/04/10 10:36:20;;;;;;;2.28;2.17;;;;;;;;;;5023268;28;20204;-68
2023/04/10 10:38:51;;;;;;;2.35;2.25;;;;;;;;;;5021018;28;20212;-68
2023/04/10 10:41:24;;;;;;;2.10;2.00;;;;;;;;;;5022793;28;20208;-69
2023/04/10 10:43:54;;;;;;;2.40;2.30;;;;;;;;;;5023557;28;20205;-68
2023/04/10 10:46:25;;;;;;;2.00;1.90;;;;;;;;;;5017494;28;20228;-69
2023/04/10 10:48:58;;;;;;;2.70;2.50;;;;;;;;;;5020029;28;20197;-68
2023/04/10 10:51:25;;;;;;;2.92;2.50;;;;;;;;;;5020826;28;20212;-68
2023/04/10 10:53:52;;;;;;;2.42;2.33;;;;;;;;;;5017356;28;20193;-68
2023/04/10 10:56:36;;;;;;;2.70;2.50;;;;;;;;;;5019399;28;20215;-68
2023/04/10 10:59:03;;;;;;;2.20;2.10;;;;;;;;;;5015602;28;20205;-67
2023/04/10 11:01:31;;;;;;;2.35;2.25;;;;;;;;;;5018271;28;20288;-68
2023/04/10 11:03:59;;;;;;;2.40;2.30;;;;;;;;;;5014550;28;20217;-69
2023/04/10 11:06:45;;;;;;;2.30;2.20;;;;;;;;;;5018961;28;20228;-68
2023/04/10 11:09:42;;;;;;;2.35;2.25;;;;;;;;;;5023321;28;20212;-69
2023/04/10 11:12:11;;;;;;;2.30;2.20;;;;;;;;;;5024751;28;20223;-68
2023/04/10 11:14:38;;;;;;;2.47;2.38;;;;;;;;;;5018299;28;20213;-69
2023/04/10 11:17:05;;;;;;;2.55;2.35;;;;;;;;;;5023407;28;20219;-68
2023/04/10 11:19:52;;;;;;;2.47;2.28;;;;;;;;;;5027164;28;20220;-68
2023/04/10 11:22:19;;;;;;;2.47;2.38;;;;;;;;;;5021999;28;20208;-68
2023/04/10 11:24:57;;;;;;;2.60;2.40;;;;;;;;;;5025039;28;20212;-68
2023/04/10 11:27:45;;;;;;;2.67;2.47;;;;;;;;;;5023196;28;20232;-68
2023/04/10 11:30:30;;;;;;;2.60;2.40;;;;;;;;;;5022893;28;20293;-68
2023/04/10 11:33:00;;;;;;;2.45;2.35;;;;;;;;;;4995372;28;20351;-68
2023/04/10 11:35:27;;;;;;;2.85;2.65;;;;;;;;;;5004777;28;20200;-68
2023/04/10 11:38:09;;;;;;;5.50;2.20;;;;;;;;;;5022619;28;20193;-68
2023/04/10 11:40:36;;;;;;;2.97;2.30;;;;;;;;;;5025967;28;20196;-68
2023/04/10 11:43:13;;;;;;;2.40;2.30;;;;;;;;;;5021775;28;20197;-68
2023/04/10 11:45:40;;;;;;;2.33;2.22;;;;;;;;;;5021315;28;20251;-68
2023/04/10 11:48:09;;;;;;;2.70;2.50;;;;;;;;;;5018170;28;20213;-68
2023/04/10 11:50:36;;;;;;;3.05;2.40;;;;;;;;;;5021650;28;20197;-68
2023/04/10 11:53:17;;;;;;;2.35;2.15;;;;;;;;;;5023533;28;20240;-68
2023/04/10 11:55:45;;;;;;;9.88;2.53;;;;;;;;;;5012547;28;20225;-68
2023/04/10 11:58:22;;;;;;;2.55;2.35;;;;;;;;;;5019956;28;20224;-68
2023/04/10 12:00:56;;;;;;;3.65;2.38;;;;;;;;;;5022635;28;20209;-68
2023/04/10 12:03:32;;;;;;;2.28;2.17;;;;;;;;;;5020919;28;20220;-68
2023/04/10 12:05:59;;;;;;;2.97;2.53;;;;;;;;;;5022598;28;20212;-68
2023/04/10 12:08:31;;;;;;;2.58;2.38;;;;;;;;;;5023014;28;20208;-68
2023/04/10 12:10:58;;;;;;;2.45;2.25;;;;;;;;;;5022575;28;20231;-68
2023/04/10 12:13:25;;;;;;;2.35;2.15;;;;;;;;;;5017948;28;20238;-68
2023/04/10 12:15:53;;;;;;;3.15;2.40;;;;;;;;;;5028122;28;20204;-67
2023/04/10 12:18:20;;;;;;;2.55;2.35;;;;;;;;;;5012648;28;20219;-68
2023/04/10 12:20:50;;;;;;;2.40;2.20;;;;;;;;;;5020672;28;20275;-67
2023/04/10 12:23:18;;;;;;;2.50;2.30;;;;;;;;;;5016464;28;20347;-67
2023/04/10 12:25:45;;;;;;;2.40;2.20;;;;;;;;;;5022661;28;20204;-67
2023/04/10 12:28:17;;;;;;;2.70;2.50;;;;;;;;;;5021599;28;20238;-65
2023/04/10 12:30:47;;;;;;;2.40;2.30;;;;;;;;;;5021541;28;20215;-68
2023/04/10 12:33:14;;;;;;;3.33;2.90;;;;;;;;;;5021561;28;20303;-68
2023/04/10 12:35:42;;;;;;;2.95;2.75;;;;;;;;;;5022879;28;20223;-67
2023/04/10 12:38:11;;;;;;;2.90;2.70;;;;;;;;;;5020802;28;20193;-67
2023/04/10 12:40:40;;;;;;;2.95;2.75;;;;;;;;;;5023578;28;20208;-68
2023/04/10 12:43:07;;;;;;;2.83;2.63;;;;;;;;;;5016783;28;20200;-68
2023/04/10 12:45:43;;;;;;;3.00;2.70;;;;;;;;;;5018962;28;20204;-68
2023/04/10 12:48:11;;;;;;;2.90;2.70;;;;;;;;;;5023158;28;20235;-68
2023/04/10 12:50:47;;;;;;;3.00;2.80;;;;;;;;;;5020911;28;20211;-67
2023/04/10 12:53:15;;;;;;;2.83;2.58;;;;;;;;;;5012835;28;20372;-67
2023/04/10 12:55:42;;;;;;;2.53;2.40;;;;;;;;;;5022993;28;20204;-68
2023/04/10 12:58:17;;;;;;;2.53;2.35;;;;;;;;;;5023354;28;20205;-68
2023/04/10 13:00:44;;;;;;;2.47;2.30;;;;;;;;;;5020845;28;20250;-68
2023/04/10 13:03:11;;;;;;;2.65;2.45;;;;;;;;;;5015386;28;20232;-67
2023/04/10 13:05:38;;;;;;;2.20;2.10;;;;;;;;;;5018022;28;20215;-69
2023/04/10 13:08:05;;;;;;;2.42;2.33;;;;;;;;;;5016481;28;20246;-67
2023/04/10 13:10:36;;;;;;;2.67;2.50;;;;;;;;;;5020304;28;20212;-68
2023/04/10 13:13:03;;;;;;;4.93;2.70;;;;;;;;;;5019311;28;20250;-68
2023/04/10 13:15:33;;;;;;;2.60;2.40;;;;;;;;;;5024513;28;20631;-67
2023/04/10 13:18:00;;;;;;;2.67;2.47;;;;;;;;;;5019940;28;20215;-68
2023/04/10 13:20:27;;;;;;;3.20;2.33;;;;;;;;;;5021455;28;20204;-68
2023/04/10 13:22:55;;;;;;;2.75;2.13;;;;;;;;;;5019504;28;20231;-68
2023/04/10 13:25:22;;;;;;;2.17;2.08;;;;;;;;;;5020687;28;20196;-69
2023/04/10 13:27:50;;;;;;;2.08;1.98;;;;;;;;;;5018141;28;20228;-68
2023/04/10 13:30:17;;;;;;;10.57;8.60;;;;;;;;;;5020742;28;20226;-68
2023/04/10 13:32:44;;;;;;;3.70;3.40;;;;;;;;;;5019584;28;20204;-68
2023/04/10 13:35:12;;;;;;;2.95;2.50;;;;;;;;;;5021521;28;20227;-68
2023/04/10 13:37:39;;;;;;;2.45;2.25;;;;;;;;;;5017419;28;20200;-68
2023/04/10 13:40:07;;;;;;;2.33;2.22;;;;;;;;;;5021669;28;20215;-69
2023/04/10 13:42:34;;;;;;;2.83;2.20;;;;;;;;;;5020074;28;20212;-69
2023/04/10 13:45:03;;;;;;;2.08;1.98;;;;;;;;;;5019879;28;20211;-68
2023/04/10 13:47:30;;;;;;;3.95;2.30;;;;;;;;;;5023320;28;20227;-69
2023/04/10 13:49:57;;;;;;;2.10;2.00;;;;;;;;;;5017454;28;20208;-69
2023/04/10 13:52:24;;;;;;;2.10;2.00;;;;;;;;;;5019390;28;20200;-69
2023/04/10 13:54:51;;;;;;;2.25;2.10;;;;;;;;;;5010689;28;20220;-68
2023/04/10 13:57:18;;;;;;;2.20;2.03;;;;;;;;;;5022194;28;20204;-68
2023/04/10 13:59:45;;;;;;;1.98;1.77;;;;;;;;;;5022509;28;20204;-68
2023/04/10 14:02:14;;;;;;;2.30;2.10;;;;;;;;;;5019035;28;20201;-68
2023/04/10 14:04:41;;;;;;;2.00;1.90;;;;;;;;;;5021670;28;20200;-68
2023/04/10 14:07:10;;;;;;;2.10;2.00;;;;;;;;;;5017503;28;20227;-68
2023/04/10 14:09:37;;;;;;;1.90;1.80;;;;;;;;;;5017571;28;20228;-68
2023/04/10 14:12:04;;;;;;;2.05;1.85;;;;;;;;;;5001098;28;20244;-69
2023/04/10 14:14:32;;;;;;;2.25;2.05;;;;;;;;;;5017792;28;20208;-68
2023/04/10 14:16:59;;;;;;;3.20;2.40;;;;;;;;;;5023217;28;20208;-68
2023/04/10 14:19:27;;;;;;;2.80;2.10;;;;;;;;;;5021179;28;20208;-68
2023/04/10 14:21:54;;;;;;;2.30;2.20;;;;;;;;;;5024201;28;20211;-68
2023/04/10 14:24:21;;;;;;;2.10;2.00;;;;;;;;;;5023117;28;20212;-69
2023/04/10 14:26:50;;;;;;;2.13;1.95;;;;;;;;;;5012989;28;20236;-68
2023/04/10 14:29:18;;;;;;;2.03;1.92;;;;;;;;;;5017474;28;20235;-68
2023/04/10 14:31:45;;;;;;;2.17;2.08;;;;;;;;;;5019447;28;20220;-68
2023/04/10 14:34:12;;;;;;;2.28;2.17;;;;;;;;;;5023757;28;20231;-68
2023/04/10 14:36:40;;;;;;;2.17;2.00;;;;;;;;;;5018029;28;20196;-68
2023/04/10 14:39:07;;;;;;;2.28;2.10;;;;;;;;;;5017615;28;20204;-70
2023/04/10 14:41:34;;;;;;;2.25;2.15;;;;;;;;;;5016766;28;20200;-68
2023/04/10 14:44:02;;;;;;;2.08;1.98;;;;;;;;;;5017022;28;20215;-68
2023/04/10 14:46:29;;;;;;;2.58;2.38;;;;;;;;;;5019247;28;20205;-68
2023/04/10 14:48:56;;;;;;;2.17;2.00;;;;;;;;;;5024773;28;20221;-68
2023/04/10 14:51:23;;;;;;;2.20;2.10;;;;;;;;;;5023173;28;20208;-69